sensor_id;sensor_type;location;lat;lon;timestamp;temperature;humidity
19561;DHT22;9927;47.792;10.616;2022-09-27T03:03:07;10.90;99.90
19561;DHT22;9927;47.792;10.616;2022-09-27T03:05:52;10.90;99.90
19561;DHT22;9927;47.792;10.616;2022-09-27T03:08:20;11.00;99.90
19561;DHT22;9927;47.792;10.616;2022-09-27T03:10:48;11.00;99.90
19561;DHT22;9927;47.792;10.616;2022-09-27T03:13:15;11.00;99.90
19561;DHT22;9927;47.792;10.616;2022-09-27T03:15:42;10.90;99.90
19561;DHT22;9927;47.792;10.616;2022-09-27T03:18:10;11.00;99.90
19561;DHT22;9927;47.792;10.616;2022-09-27T03:20:37;11.10;99.90
19561;DHT22;9927;47.792;10.616;2022-09-27T03:23:04;11.10;99.90
19561;DHT22;9927;47.792;10.616;2022-09-27T03:25:31;11.10;99.90
19561;DHT22;9927;47.792;10.616;2022-09-27T03:27:58;11.00;99.90
19561;DHT22;9927;47.792;10.616;2022-09-27T03:30:26;11.00;99.90
19561;DHT22;9927;47.792;10.616;2022-09-27T03:32:53;10.90;99.90
19561;DHT22;9927;47.792;10.616;2022-09-27T03:35:20;10.80;99.90
19561;DHT22;9927;47.792;10.616;2022-09-27T03:37:47;10.80;99.90
19561;DHT22;9927;47.792;10.616;2022-09-27T03:40:15;10.70;99.90
19561;DHT22;9927;47.792;10.616;2022-09-27T03:42:43;10.70;99.90
19561;DHT22;9927;47.792;10.616;2022-09-27T03:45:16;10.70;99.90
19561;DHT22;9927;47.792;10.616;2022-09-27T03:47:43;10.70;99.90
19561;DHT22;9927;47.792;10.616;2022-09-27T03:50:11;10.70;99.90
19561;DHT22;9927;47.792;10.616;2022-09-27T03:52:39;10.80;99.90
19561;DHT22;9927;47.792;10.616;2022-09-27T03:55:06;10.80;99.90
19561;DHT22;9927;47.792;10.616;2022-09-27T03:57:33;10.70;99.90
19561;DHT22;9927;47.792;10.616;2022-09-27T04:00:01;10.60;99.90
19561;DHT22;9927;47.792;10.616;2022-09-27T04:02:29;10.60;99.90
19561;DHT22;9927;47.792;10.616;2022-09-27T04:04:56;10.70;99.90
19561;DHT22;9927;47.792;10.616;2022-09-27T04:07:23;10.70;99.90
19561;DHT22;9927;47.792;10.616;2022-09-27T04:09:50;10.60;99.90
19561;DHT22;9927;47.792;10.616;2022-09-27T04:12:17;10.50;99.90
19561;DHT22;9927;47.792;10.616;2022-09-27T04:14:45;10.50;99.90
19561;DHT22;9927;47.792;10.616;2022-09-27T04:17:12;10.50;99.90
19561;DHT22;9927;47.792;10.616;2022-09-27T04:19:39;10.50;99.90
19561;DHT22;9927;47.792;10.616;2022-09-27T04:22:07;10.50;99.90
19561;DHT22;9927;47.792;10.616;2022-09-27T04:24:34;10.40;99.90
19561;DHT22;9927;47.792;10.616;2022-09-27T04:27:01;10.40;99.90
19561;DHT22;9927;47.792;10.616;2022-09-27T04:29:28;10.30;99.90
19561;DHT22;9927;47.792;10.616;2022-09-27T04:31:55;10.20;99.90
19561;DHT22;9927;47.792;10.616;2022-09-27T04:34:23;10.20;99.90
19561;DHT22;9927;47.792;10.616;2022-09-27T04:37:12;10.20;99.90
19561;DHT22;9927;47.792;10.616;2022-09-27T04:39:39;10.20;99.90
19561;DHT22;9927;47.792;10.616;2022-09-27T04:42:07;10.10;99.90
19561;DHT22;9927;47.792;10.616;2022-09-27T04:44:35;10.10;99.90
19561;DHT22;9927;47.792;10.616;2022-09-27T04:47:02;10.20;99.90
19561;DHT22;9927;47.792;10.616;2022-09-27T04:49:29;10.30;99.90
19561;DHT22;9927;47.792;10.616;2022-09-27T04:51:56;10.20;99.90
19561;DHT22;9927;47.792;10.616;2022-09-27T04:54:24;10.10;99.90
19561;DHT22;9927;47.792;10.616;2022-09-27T04:56:51;10.20;99.90
19561;DHT22;9927;47.792;10.616;2022-09-27T04:59:18;10.10;99.90
19561;DHT22;9927;47.792;10.616;2022-09-27T05:01:46;10.10;99.90
19561;DHT22;9927;47.792;10.616;2022-09-27T05:04:13;10.10;99.90
19561;DHT22;9927;47.792;10.616;2022-09-27T05:06:41;10.00;99.90
19561;DHT22;9927;47.792;10.616;2022-09-27T05:09:08;10.10;99.90
19561;DHT22;9927;47.792;10.616;2022-09-27T05:11:36;10.10;99.90
19561;DHT22;9927;47.792;10.616;2022-09-27T05:14:04;10.10;99.90
19561;DHT22;9927;47.792;10.616;2022-09-27T05:16:32;10.10;99.90
19561;DHT22;9927;47.792;10.616;2022-09-27T05:19:01;10.10;99.90
19561;DHT22;9927;47.792;10.616;2022-09-27T05:21:28;10.10;99.90
19561;DHT22;9927;47.792;10.616;2022-09-27T05:23:55;10.10;99.90
19561;DHT22;9927;47.792;10.616;2022-09-27T05:26:22;10.10;99.90
19561;DHT22;9927;47.792;10.616;2022-09-27T05:28:49;10.10;99.90
19561;DHT22;9927;47.792;10.616;2022-09-27T05:31:17;10.20;99.90
19561;DHT22;9927;47.792;10.616;2022-09-27T05:33:44;10.30;99.90
19561;DHT22;9927;47.792;10.616;2022-09-27T05:36:11;10.40;99.90
19561;DHT22;9927;47.792;10.616;2022-09-27T05:38:39;10.40;99.90
19561;DHT22;9927;47.792;10.616;2022-09-27T05:41:08;10.50;99.90
19561;DHT22;9927;47.792;10.616;2022-09-27T05:43:35;10.50;99.90
19561;DHT22;9927;47.792;10.616;2022-09-27T05:46:02;10.40;99.90
19561;DHT22;9927;47.792;10.616;2022-09-27T05:48:31;10.50;99.90
19561;DHT22;9927;47.792;10.616;2022-09-27T05:50:58;10.50;99.90
19561;DHT22;9927;47.792;10.616;2022-09-27T05:53:26;10.40;99.90
19561;DHT22;9927;47.792;10.616;2022-09-27T05:55:53;10.40;99.90
19561;DHT22;9927;47.792;10.616;2022-09-27T05:58:20;10.40;99.90
19561;DHT22;9927;47.792;10.616;2022-09-27T06:00:47;10.50;99.90
19561;DHT22;9927;47.792;10.616;2022-09-27T06:03:15;10.50;99.90
19561;DHT22;9927;47.792;10.616;2022-09-27T06:05:43;10.50;99.90
19561;DHT22;9927;47.792;10.616;2022-09-27T06:08:16;10.50;99.90
19561;DHT22;9927;47.792;10.616;2022-09-27T06:10:46;10.60;99.90
19561;DHT22;9927;47.792;10.616;2022-09-27T06:13:14;10.60;99.90
19561;DHT22;9927;47.792;10.616;2022-09-27T06:15:43;10.70;99.90
19561;DHT22;9927;47.792;10.616;2022-09-27T06:18:15;10.60;99.90
19561;DHT22;9927;47.792;10.616;2022-09-27T06:20:44;10.60;99.90
19561;DHT22;9927;47.792;10.616;2022-09-27T06:23:14;10.50;99.90
19561;DHT22;9927;47.792;10.616;2022-09-27T06:25:42;10.40;99.90
19561;DHT22;9927;47.792;10.616;2022-09-27T06:28:09;10.10;99.90
19561;DHT22;9927;47.792;10.616;2022-09-27T06:30:39;9.90;99.90
19561;DHT22;9927;47.792;10.616;2022-09-27T06:33:11;9.90;99.90
19561;DHT22;9927;47.792;10.616;2022-09-27T06:35:39;9.80;99.90
19561;DHT22;9927;47.792;10.616;2022-09-27T06:38:13;9.80;99.90
19561;DHT22;9927;47.792;10.616;2022-09-27T06:40:42;9.90;99.90
19561;DHT22;9927;47.792;10.616;2022-09-27T06:43:18;9.80;99.90
19561;DHT22;9927;47.792;10.616;2022-09-27T06:45:46;10.00;99.90
19561;DHT22;9927;47.792;10.616;2022-09-27T06:48:14;10.20;99.90
19561;DHT22;9927;47.792;10.616;2022-09-27T06:50:45;10.10;99.90
19561;DHT22;9927;47.792;10.616;2022-09-27T06:53:14;10.10;99.90
19561;DHT22;9927;47.792;10.616;2022-09-27T06:55:42;10.20;99.90
19561;DHT22;9927;47.792;10.616;2022-09-27T06:58:10;10.10;99.90
19561;DHT22;9927;47.792;10.616;2022-09-27T07:00:56;10.10;99.90
19561;DHT22;9927;47.792;10.616;2022-09-27T07:03:24;10.30;99.90
19561;DHT22;9927;47.792;10.616;2022-09-27T07:06:14;10.60;99.90
19561;DHT22;9927;47.792;10.616;2022-09-27T07:08:42;10.70;99.90
19561;DHT22;9927;47.792;10.616;2022-09-27T07:11:09;10.80;99.90
19561;DHT22;9927;47.792;10.616;2022-09-27T07:13:37;10.80;99.90
19561;DHT22;9927;47.792;10.616;2022-09-27T07:16:14;10.80;99.90
19561;DHT22;9927;47.792;10.616;2022-09-27T07:18:42;10.80;99.90
19561;DHT22;9927;47.792;10.616;2022-09-27T07:21:09;10.80;99.90
19561;DHT22;9927;47.792;10.616;2022-09-27T07:23:38;10.80;99.90
19561;DHT22;9927;47.792;10.616;2022-09-27T07:26:06;10.80;99.90
19561;DHT22;9927;47.792;10.616;2022-09-27T07:28:34;10.80;99.90
19561;DHT22;9927;47.792;10.616;2022-09-27T07:31:02;10.70;99.90
19561;DHT22;9927;47.792;10.616;2022-09-27T07:33:30;10.60;99.90
19561;DHT22;9927;47.792;10.616;2022-09-27T07:35:58;10.50;99.90
19561;DHT22;9927;47.792;10.616;2022-09-27T07:38:25;10.60;99.90
19561;DHT22;9927;47.792;10.616;2022-09-27T07:40:53;10.50;99.90
19561;DHT22;9927;47.792;10.616;2022-09-27T07:43:20;10.60;99.90
19561;DHT22;9927;47.792;10.616;2022-09-27T07:45:47;10.50;99.90
19561;DHT22;9927;47.792;10.616;2022-09-27T07:48:15;10.50;99.90
19561;DHT22;9927;47.792;10.616;2022-09-27T07:50:43;10.20;99.90
19561;DHT22;9927;47.792;10.616;2022-09-27T07:53:10;10.30;99.90
19561;DHT22;9927;47.792;10.616;2022-09-27T07:55:40;10.50;99.90
19561;DHT22;9927;47.792;10.616;2022-09-27T07:58:10;10.60;99.90
19561;DHT22;9927;47.792;10.616;2022-09-27T08:00:38;10.60;99.90
19561;DHT22;9927;47.792;10.616;2022-09-27T08:03:12;10.60;99.90
19561;DHT22;9927;47.792;10.616;2022-09-27T08:05:44;10.50;99.90
19561;DHT22;9927;47.792;10.616;2022-09-27T08:08:12;10.70;99.90
19561;DHT22;9927;47.792;10.616;2022-09-27T08:10:39;11.00;99.90
19561;DHT22;9927;47.792;10.616;2022-09-27T08:13:10;11.00;99.90
19561;DHT22;9927;47.792;10.616;2022-09-27T08:15:37;11.10;99.90
19561;DHT22;9927;47.792;10.616;2022-09-27T08:18:06;11.30;99.90
19561;DHT22;9927;47.792;10.616;2022-09-27T08:20:35;11.70;99.90
19561;DHT22;9927;47.792;10.616;2022-09-27T08:23:02;11.70;99.90
19561;DHT22;9927;47.792;10.616;2022-09-27T08:25:30;11.80;99.90
19561;DHT22;9927;47.792;10.616;2022-09-27T08:28:00;11.50;99.90
19561;DHT22;9927;47.792;10.616;2022-09-27T08:30:28;11.90;99.90
19561;DHT22;9927;47.792;10.616;2022-09-27T08:32:58;11.90;99.90
19561;DHT22;9927;47.792;10.616;2022-09-27T08:35:26;11.70;99.90
19561;DHT22;9927;47.792;10.616;2022-09-27T08:37:56;11.50;99.90
19561;DHT22;9927;47.792;10.616;2022-09-27T08:46:19;11.60;99.90
19561;DHT22;9927;47.792;10.616;2022-09-27T08:48:53;11.70;99.90
19561;DHT22;9927;47.792;10.616;2022-09-27T08:51:29;11.50;99.90
19561;DHT22;9927;47.792;10.616;2022-09-27T08:54:06;11.60;99.90
19561;DHT22;9927;47.792;10.616;2022-09-27T08:56:34;11.30;99.90
19561;DHT22;9927;47.792;10.616;2022-09-27T08:59:12;11.10;99.90
19561;DHT22;9927;47.792;10.616;2022-09-27T09:01:40;11.00;99.90
19561;DHT22;9927;47.792;10.616;2022-09-27T09:04:10;10.70;99.90
19561;DHT22;9927;47.792;10.616;2022-09-27T09:07:26;10.50;99.90
19561;DHT22;9927;47.792;10.616;2022-09-27T09:18:54;10.40;99.90
19561;DHT22;9927;47.792;10.616;2022-09-27T09:26:45;9.90;99.90
19561;DHT22;9927;47.792;10.616;2022-09-27T09:29:51;9.90;99.90
19561;DHT22;9927;47.792;10.616;2022-09-27T09:35:05;9.90;99.90
19561;DHT22;9927;47.792;10.616;2022-09-27T09:37:46;9.80;99.90
19561;DHT22;9927;47.792;10.616;2022-09-27T09:40:28;9.70;99.90
19561;DHT22;9927;47.792;10.616;2022-09-27T09:43:15;9.80;99.90
19561;DHT22;9927;47.792;10.616;2022-09-27T09:45:47;9.70;99.90
19561;DHT22;9927;47.792;10.616;2022-09-27T09:48:50;9.50;99.90
19561;DHT22;9927;47.792;10.616;2022-09-27T09:51:23;9.10;99.90
19561;DHT22;9927;47.792;10.616;2022-09-27T09:54:12;9.10;99.90
19561;DHT22;9927;47.792;10.616;2022-09-27T09:56:44;9.20;99.90
19561;DHT22;9927;47.792;10.616;2022-09-27T09:59:22;9.10;99.90
19561;DHT22;9927;47.792;10.616;2022-09-27T10:01:53;9.30;99.90
19561;DHT22;9927;47.792;10.616;2022-09-27T10:04:26;9.60;99.90
19561;DHT22;9927;47.792;10.616;2022-09-27T10:06:56;9.70;99.90
19561;DHT22;9927;47.792;10.616;2022-09-27T10:09:26;9.90;99.90
19561;DHT22;9927;47.792;10.616;2022-09-27T10:11:54;10.10;99.90
19561;DHT22;9927;47.792;10.616;2022-09-27T10:14:22;10.10;99.90
19561;DHT22;9927;47.792;10.616;2022-09-27T10:16:57;10.10;99.90
19561;DHT22;9927;47.792;10.616;2022-09-27T10:19:33;10.30;99.90
19561;DHT22;9927;47.792;10.616;2022-09-27T10:22:09;10.60;99.90
19561;DHT22;9927;47.792;10.616;2022-09-27T10:25:09;10.90;99.90
19561;DHT22;9927;47.792;10.616;2022-09-27T10:27:40;11.00;99.90
19561;DHT22;9927;47.792;10.616;2022-09-27T10:30:32;11.10;99.90
19561;DHT22;9927;47.792;10.616;2022-09-27T10:33:04;11.30;99.90
19561;DHT22;9927;47.792;10.616;2022-09-27T10:35:35;11.60;99.90
19561;DHT22;9927;47.792;10.616;2022-09-27T10:40:48;11.30;99.90
19561;DHT22;9927;47.792;10.616;2022-09-27T10:43:36;11.30;99.90
19561;DHT22;9927;47.792;10.616;2022-09-27T10:46:25;11.20;99.90
19561;DHT22;9927;47.792;10.616;2022-09-27T10:49:22;10.90;99.90
19561;DHT22;9927;47.792;10.616;2022-09-27T10:51:59;10.80;99.90
19561;DHT22;9927;47.792;10.616;2022-09-27T10:54:36;11.00;99.90
19561;DHT22;9927;47.792;10.616;2022-09-27T10:57:23;11.10;99.90
19561;DHT22;9927;47.792;10.616;2022-09-27T10:59:59;10.90;99.90
19561;DHT22;9927;47.792;10.616;2022-09-27T11:02:31;11.20;99.90
19561;DHT22;9927;47.792;10.616;2022-09-27T11:05:14;11.20;99.90
19561;DHT22;9927;47.792;10.616;2022-09-27T11:07:56;11.20;99.90
19561;DHT22;9927;47.792;10.616;2022-09-27T11:10:27;11.30;99.90
19561;DHT22;9927;47.792;10.616;2022-09-27T11:13:15;11.30;99.90
19561;DHT22;9927;47.792;10.616;2022-09-27T11:26:43;11.60;99.90
19561;DHT22;9927;47.792;10.616;2022-09-27T11:29:24;11.90;99.90
19561;DHT22;9927;47.792;10.616;2022-09-27T11:32:12;12.40;99.90
19561;DHT22;9927;47.792;10.616;2022-09-27T11:40:45;13.20;99.90
19561;DHT22;9927;47.792;10.616;2022-09-27T11:46:05;13.60;99.90
19561;DHT22;9927;47.792;10.616;2022-09-27T11:49:22;13.60;99.90
19561;DHT22;9927;47.792;10.616;2022-09-27T11:57:42;13.10;99.90
19561;DHT22;9927;47.792;10.616;2022-09-27T12:08:03;12.90;99.90
19561;DHT22;9927;47.792;10.616;2022-09-27T12:10:33;13.00;99.90
19561;DHT22;9927;47.792;10.616;2022-09-27T12:13:02;13.00;99.90
19561;DHT22;9927;47.792;10.616;2022-09-27T12:15:33;12.90;99.90
19561;DHT22;9927;47.792;10.616;2022-09-27T12:18:45;12.60;99.90
19561;DHT22;9927;47.792;10.616;2022-09-27T12:21:07;12.50;99.90
19561;DHT22;9927;47.792;10.616;2022-09-27T12:24:04;12.40;99.90
19561;DHT22;9927;47.792;10.616;2022-09-27T12:26:37;12.10;99.90
19561;DHT22;9927;47.792;10.616;2022-09-27T12:29:17;11.80;99.90
19561;DHT22;9927;47.792;10.616;2022-09-27T12:31:58;11.60;99.90
19561;DHT22;9927;47.792;10.616;2022-09-27T12:37:13;11.40;99.90
19561;DHT22;9927;47.792;10.616;2022-09-27T12:39:56;11.20;99.90
19561;DHT22;9927;47.792;10.616;2022-09-27T12:42:54;11.10;99.90
19561;DHT22;9927;47.792;10.616;2022-09-27T12:48:30;10.50;99.90
19561;DHT22;9927;47.792;10.616;2022-09-27T12:51:22;10.40;99.90
19561;DHT22;9927;47.792;10.616;2022-09-27T13:04:47;10.30;99.90
19561;DHT22;9927;47.792;10.616;2022-09-27T13:10:41;10.00;99.90
19561;DHT22;9927;47.792;10.616;2022-09-27T13:13:14;9.50;99.90
19561;DHT22;9927;47.792;10.616;2022-09-27T13:15:43;9.40;99.90
19561;DHT22;9927;47.792;10.616;2022-09-27T13:21:05;9.20;99.90
19561;DHT22;9927;47.792;10.616;2022-09-27T13:31:14;10.70;99.90
19561;DHT22;9927;47.792;10.616;2022-09-27T13:33:46;10.90;99.90
19561;DHT22;9927;47.792;10.616;2022-09-27T13:38:52;10.90;99.90
19561;DHT22;9927;47.792;10.616;2022-09-27T13:41:23;10.70;99.90
19561;DHT22;9927;47.792;10.616;2022-09-27T13:46:36;10.60;99.90
19561;DHT22;9927;47.792;10.616;2022-09-27T13:49:36;10.50;99.90
19561;DHT22;9927;47.792;10.616;2022-09-27T13:55:01;10.70;99.90
19561;DHT22;9927;47.792;10.616;2022-09-27T13:58:00;10.70;99.90
19561;DHT22;9927;47.792;10.616;2022-09-27T14:00:40;10.90;99.90
19561;DHT22;9927;47.792;10.616;2022-09-27T14:05:50;11.00;99.90
19561;DHT22;9927;47.792;10.616;2022-09-27T14:08:37;11.00;99.90
19561;DHT22;9927;47.792;10.616;2022-09-27T14:11:14;10.90;99.90
19561;DHT22;9927;47.792;10.616;2022-09-27T14:13:44;10.90;99.90
19561;DHT22;9927;47.792;10.616;2022-09-27T14:16:15;10.80;99.90
19561;DHT22;9927;47.792;10.616;2022-09-27T14:18:54;10.90;99.90
19561;DHT22;9927;47.792;10.616;2022-09-27T14:21:35;11.10;99.90
19561;DHT22;9927;47.792;10.616;2022-09-27T14:27:01;11.30;99.90
19561;DHT22;9927;47.792;10.616;2022-09-27T14:29:32;11.30;99.90
19561;DHT22;9927;47.792;10.616;2022-09-27T14:32:05;11.30;99.90
19561;DHT22;9927;47.792;10.616;2022-09-27T14:34:35;11.10;99.90
19561;DHT22;9927;47.792;10.616;2022-09-27T14:37:03;11.20;99.90
19561;DHT22;9927;47.792;10.616;2022-09-27T14:40:03;11.00;99.90
19561;DHT22;9927;47.792;10.616;2022-09-27T14:42:35;11.30;99.90
19561;DHT22;9927;47.792;10.616;2022-09-27T14:45:18;11.40;99.90
19561;DHT22;9927;47.792;10.616;2022-09-27T14:47:47;11.40;99.90
19561;DHT22;9927;47.792;10.616;2022-09-27T14:52:45;11.00;99.90
19561;DHT22;9927;47.792;10.616;2022-09-27T14:55:17;10.90;99.90
19561;DHT22;9927;47.792;10.616;2022-09-27T14:57:54;11.10;99.90
19561;DHT22;9927;47.792;10.616;2022-09-27T15:00:24;11.30;99.90
19561;DHT22;9927;47.792;10.616;2022-09-27T15:02:54;11.10;99.90
19561;DHT22;9927;47.792;10.616;2022-09-27T15:05:25;11.00;99.90
19561;DHT22;9927;47.792;10.616;2022-09-27T15:07:54;11.00;99.90
19561;DHT22;9927;47.792;10.616;2022-09-27T15:10:26;10.80;99.90
19561;DHT22;9927;47.792;10.616;2022-09-27T15:12:55;10.70;99.90
19561;DHT22;9927;47.792;10.616;2022-09-27T15:15:36;10.80;99.90
19561;DHT22;9927;47.792;10.616;2022-09-27T15:18:33;10.70;99.90
19561;DHT22;9927;47.792;10.616;2022-09-27T15:21:00;10.80;99.90
19561;DHT22;9927;47.792;10.616;2022-09-27T15:23:33;10.80;99.90
19561;DHT22;9927;47.792;10.616;2022-09-27T15:26:16;10.70;99.90
19561;DHT22;9927;47.792;10.616;2022-09-27T15:28:45;10.80;99.90
19561;DHT22;9927;47.792;10.616;2022-09-27T15:31:14;10.80;99.90
19561;DHT22;9927;47.792;10.616;2022-09-27T15:33:42;10.90;99.90
19561;DHT22;9927;47.792;10.616;2022-09-27T15:39:27;11.20;99.90
19561;DHT22;9927;47.792;10.616;2022-09-27T15:52:47;10.80;99.90
19561;DHT22;9927;47.792;10.616;2022-09-27T15:55:20;10.60;99.90
19561;DHT22;9927;47.792;10.616;2022-09-27T15:58:14;10.20;99.90
19561;DHT22;9927;47.792;10.616;2022-09-27T16:00:53;10.00;99.90
19561;DHT22;9927;47.792;10.616;2022-09-27T16:03:22;10.00;99.90
19561;DHT22;9927;47.792;10.616;2022-09-27T16:05:51;9.90;99.90
19561;DHT22;9927;47.792;10.616;2022-09-27T16:08:18;9.90;99.90
19561;DHT22;9927;47.792;10.616;2022-09-27T16:10:48;9.90;99.90
19561;DHT22;9927;47.792;10.616;2022-09-27T16:13:16;9.90;99.90
19561;DHT22;9927;47.792;10.616;2022-09-27T16:15:44;9.90;99.90
19561;DHT22;9927;47.792;10.616;2022-09-27T16:18:12;10.00;99.90
19561;DHT22;9927;47.792;10.616;2022-09-27T16:20:39;10.00;99.90
19561;DHT22;9927;47.792;10.616;2022-09-27T16:23:07;10.00;99.90
19561;DHT22;9927;47.792;10.616;2022-09-27T16:25:34;9.90;99.90
19561;DHT22;9927;47.792;10.616;2022-09-27T16:28:03;9.90;99.90
19561;DHT22;9927;47.792;10.616;2022-09-27T16:30:31;9.90;99.90
19561;DHT22;9927;47.792;10.616;2022-09-27T16:32:59;9.90;99.90
19561;DHT22;9927;47.792;10.616;2022-09-27T16:35:26;9.80;99.90
19561;DHT22;9927;47.792;10.616;2022-09-27T16:37:54;9.60;99.90
19561;DHT22;9927;47.792;10.616;2022-09-27T16:40:21;9.40;99.90
19561;DHT22;9927;47.792;10.616;2022-09-27T16:42:49;9.30;99.90
19561;DHT22;9927;47.792;10.616;2022-09-27T16:45:16;9.30;99.90
19561;DHT22;9927;47.792;10.616;2022-09-27T16:47:46;9.40;99.90
19561;DHT22;9927;47.792;10.616;2022-09-27T16:50:14;9.40;99.90
19561;DHT22;9927;47.792;10.616;2022-09-27T16:53:00;9.40;99.90
19561;DHT22;9927;47.792;10.616;2022-09-27T16:55:27;9.40;99.90
19561;DHT22;9927;47.792;10.616;2022-09-27T16:57:58;9.40;99.90
19561;DHT22;9927;47.792;10.616;2022-09-27T17:00:26;9.50;99.90
19561;DHT22;9927;47.792;10.616;2022-09-27T17:02:53;9.60;99.90
19561;DHT22;9927;47.792;10.616;2022-09-27T17:05:21;9.60;99.90
19561;DHT22;9927;47.792;10.616;2022-09-27T17:07:53;9.60;99.90
19561;DHT22;9927;47.792;10.616;2022-09-27T17:10:21;9.50;99.90
19561;DHT22;9927;47.792;10.616;2022-09-27T17:12:49;9.40;99.90
19561;DHT22;9927;47.792;10.616;2022-09-27T17:15:17;9.30;99.90
19561;DHT22;9927;47.792;10.616;2022-09-27T17:17:47;9.30;99.90
19561;DHT22;9927;47.792;10.616;2022-09-27T17:20:15;9.40;99.90
19561;DHT22;9927;47.792;10.616;2022-09-27T17:22:42;9.40;99.90
19561;DHT22;9927;47.792;10.616;2022-09-27T17:25:09;9.50;99.90
19561;DHT22;9927;47.792;10.616;2022-09-27T17:27:37;9.50;99.90
19561;DHT22;9927;47.792;10.616;2022-09-27T17:30:04;9.50;99.90
19561;DHT22;9927;47.792;10.616;2022-09-27T17:32:32;9.50;99.90
19561;DHT22;9927;47.792;10.616;2022-09-27T17:35:00;9.50;99.90
19561;DHT22;9927;47.792;10.616;2022-09-27T17:37:29;9.50;99.90
19561;DHT22;9927;47.792;10.616;2022-09-27T17:39:56;9.50;99.90
19561;DHT22;9927;47.792;10.616;2022-09-27T17:42:23;9.40;99.90
19561;DHT22;9927;47.792;10.616;2022-09-27T17:44:51;9.50;99.90
19561;DHT22;9927;47.792;10.616;2022-09-27T17:47:18;9.40;99.90
19561;DHT22;9927;47.792;10.616;2022-09-27T17:50:04;9.50;99.90
19561;DHT22;9927;47.792;10.616;2022-09-27T17:52:51;9.40;99.90
19561;DHT22;9927;47.792;10.616;2022-09-27T17:55:19;9.30;99.90
19561;DHT22;9927;47.792;10.616;2022-09-27T17:57:48;9.20;99.90
19561;DHT22;9927;47.792;10.616;2022-09-27T18:00:17;9.20;99.90
19561;DHT22;9927;47.792;10.616;2022-09-27T18:02:44;9.20;99.90
19561;DHT22;9927;47.792;10.616;2022-09-27T18:05:12;9.20;99.90
19561;DHT22;9927;47.792;10.616;2022-09-27T18:07:39;9.10;99.90
19561;DHT22;9927;47.792;10.616;2022-09-27T18:10:06;8.90;99.90
19561;DHT22;9927;47.792;10.616;2022-09-27T18:12:33;8.80;99.90
19561;DHT22;9927;47.792;10.616;2022-09-27T18:15:01;8.80;99.90
19561;DHT22;9927;47.792;10.616;2022-09-27T18:17:29;8.70;99.90
19561;DHT22;9927;47.792;10.616;2022-09-27T18:19:56;8.80;99.90
19561;DHT22;9927;47.792;10.616;2022-09-27T18:22:28;8.80;99.90
19561;DHT22;9927;47.792;10.616;2022-09-27T18:24:57;8.90;99.90
19561;DHT22;9927;47.792;10.616;2022-09-27T18:27:24;8.90;99.90
19561;DHT22;9927;47.792;10.616;2022-09-27T18:29:51;9.00;99.90
19561;DHT22;9927;47.792;10.616;2022-09-27T18:32:19;9.00;99.90
19561;DHT22;9927;47.792;10.616;2022-09-27T18:34:47;9.00;99.90
19561;DHT22;9927;47.792;10.616;2022-09-27T18:37:14;9.00;99.90
19561;DHT22;9927;47.792;10.616;2022-09-27T18:39:41;9.00;99.90
19561;DHT22;9927;47.792;10.616;2022-09-27T18:42:08;9.10;99.90
19561;DHT22;9927;47.792;10.616;2022-09-27T18:44:35;9.10;99.90
19561;DHT22;9927;47.792;10.616;2022-09-27T18:47:03;9.10;99.90
19561;DHT22;9927;47.792;10.616;2022-09-27T18:49:30;9.10;99.90
19561;DHT22;9927;47.792;10.616;2022-09-27T18:52:00;9.10;99.90
19561;DHT22;9927;47.792;10.616;2022-09-27T18:54:28;9.10;99.90
19561;DHT22;9927;47.792;10.616;2022-09-27T18:56:56;9.10;99.90
19561;DHT22;9927;47.792;10.616;2022-09-27T18:59:23;9.10;99.90
19561;DHT22;9927;47.792;10.616;2022-09-27T19:01:50;9.10;99.90
19561;DHT22;9927;47.792;10.616;2022-09-27T19:04:19;9.20;99.90
19561;DHT22;9927;47.792;10.616;2022-09-27T19:06:54;9.30;99.90
19561;DHT22;9927;47.792;10.616;2022-09-27T19:09:22;9.30;99.90
19561;DHT22;9927;47.792;10.616;2022-09-27T19:11:49;9.30;99.90
19561;DHT22;9927;47.792;10.616;2022-09-27T19:14:18;9.20;99.90
19561;DHT22;9927;47.792;10.616;2022-09-27T19:16:46;9.30;99.90
19561;DHT22;9927;47.792;10.616;2022-09-27T19:19:15;9.30;99.90
19561;DHT22;9927;47.792;10.616;2022-09-27T19:21:43;9.30;99.90
19561;DHT22;9927;47.792;10.616;2022-09-27T19:24:12;9.30;99.90
19561;DHT22;9927;47.792;10.616;2022-09-27T19:26:40;9.30;99.90
19561;DHT22;9927;47.792;10.616;2022-09-27T19:29:07;9.30;99.90
19561;DHT22;9927;47.792;10.616;2022-09-27T19:31:35;9.20;99.90
19561;DHT22;9927;47.792;10.616;2022-09-27T19:34:03;9.30;99.90
19561;DHT22;9927;47.792;10.616;2022-09-27T19:36:30;9.20;99.90
19561;DHT22;9927;47.792;10.616;2022-09-27T19:38:57;9.20;99.90
19561;DHT22;9927;47.792;10.616;2022-09-27T19:41:25;9.20;99.90
19561;DHT22;9927;47.792;10.616;2022-09-27T19:43:54;9.20;99.90
19561;DHT22;9927;47.792;10.616;2022-09-27T19:46:23;9.20;99.90
19561;DHT22;9927;47.792;10.616;2022-09-27T19:48:51;9.20;99.90
19561;DHT22;9927;47.792;10.616;2022-09-27T19:51:21;9.20;99.90
19561;DHT22;9927;47.792;10.616;2022-09-27T19:53:49;9.20;99.90
19561;DHT22;9927;47.792;10.616;2022-09-27T19:56:17;9.20;99.90
19561;DHT22;9927;47.792;10.616;2022-09-27T19:58:45;9.10;99.90
19561;DHT22;9927;47.792;10.616;2022-09-27T20:01:14;9.10;99.90
19561;DHT22;9927;47.792;10.616;2022-09-27T20:03:43;9.10;99.90
19561;DHT22;9927;47.792;10.616;2022-09-27T20:06:12;9.10;99.90
19561;DHT22;9927;47.792;10.616;2022-09-27T20:08:41;9.20;99.90
19561;DHT22;9927;47.792;10.616;2022-09-27T20:11:11;9.20;99.90
19561;DHT22;9927;47.792;10.616;2022-09-27T20:13:38;9.20;99.90
19561;DHT22;9927;47.792;10.616;2022-09-27T20:16:15;9.30;99.90
19561;DHT22;9927;47.792;10.616;2022-09-27T20:18:48;9.30;99.90
19561;DHT22;9927;47.792;10.616;2022-09-27T20:21:16;9.30;99.90
19561;DHT22;9927;47.792;10.616;2022-09-27T20:23:47;9.30;99.90
19561;DHT22;9927;47.792;10.616;2022-09-27T20:26:16;9.40;99.90
19561;DHT22;9927;47.792;10.616;2022-09-27T20:28:49;9.30;99.90
19561;DHT22;9927;47.792;10.616;2022-09-27T20:31:19;9.30;99.90
19561;DHT22;9927;47.792;10.616;2022-09-27T20:33:46;9.20;99.90
19561;DHT22;9927;47.792;10.616;2022-09-27T20:38:52;9.10;99.90
19561;DHT22;9927;47.792;10.616;2022-09-27T20:41:29;9.20;99.90
19561;DHT22;9927;47.792;10.616;2022-09-27T20:43:58;9.20;99.90
19561;DHT22;9927;47.792;10.616;2022-09-27T20:46:26;9.30;99.90
19561;DHT22;9927;47.792;10.616;2022-09-27T20:48:56;9.40;99.90
19561;DHT22;9927;47.792;10.616;2022-09-27T20:51:26;9.30;99.90
19561;DHT22;9927;47.792;10.616;2022-09-27T20:53:53;9.30;99.90
19561;DHT22;9927;47.792;10.616;2022-09-27T20:58:51;9.40;99.90
